createdAt,value
2018-09-15T00:01:38.179Z,15.40
2018-09-15T00:04:08.836Z,15.40
2018-09-15T00:06:39.540Z,15.40
2018-09-15T00:09:10.659Z,15.40
2018-09-15T00:11:41.336Z,15.40
2018-09-15T00:14:11.988Z,15.40
2018-09-15T00:16:42.673Z,15.40
2018-09-15T00:19:13.338Z,15.40
2018-09-15T00:21:44.220Z,15.40
2018-09-15T00:24:14.896Z,15.40
2018-09-15T00:26:45.565Z,15.40
2018-09-15T00:29:16.241Z,15.40
2018-09-15T00:31:46.922Z,15.40
2018-09-15T00:34:17.600Z,15.40
2018-09-15T00:36:48.254Z,15.40
2018-09-15T00:39:18.932Z,15.40
2018-09-15T00:41:49.621Z,15.40
2018-09-15T00:44:20.495Z,15.40
2018-09-15T00:46:51.182Z,15.40
2018-09-15T00:49:21.856Z,15.40
2018-09-15T00:51:52.495Z,15.40
2018-09-15T00:54:23.370Z,15.40
2018-09-15T00:56:54.044Z,15.40
2018-09-15T00:59:24.682Z,15.40
2018-09-15T01:01:55.428Z,15.40
2018-09-15T01:04:26.092Z,15.40
2018-09-15T01:06:56.944Z,15.40
2018-09-15T01:09:27.591Z,15.40
2018-09-15T01:11:58.282Z,15.40
2018-09-15T01:14:28.954Z,15.40
2018-09-15T01:16:59.817Z,15.40
2018-09-15T01:19:30.468Z,15.40
2018-09-15T01:22:01.149Z,15.40
2018-09-15T01:24:31.790Z,15.40
2018-09-15T01:27:02.484Z,15.40
2018-09-15T01:29:33.163Z,15.40
2018-09-15T01:32:04.416Z,15.40
2018-09-15T01:34:35.096Z,15.30
2018-09-15T01:37:05.761Z,15.30
2018-09-15T01:39:36.444Z,15.30
2018-09-15T01:42:07.462Z,15.30
2018-09-15T01:44:38.204Z,15.30
2018-09-15T01:47:08.869Z,15.40
2018-09-15T01:49:39.887Z,15.40
2018-09-15T01:52:10.575Z,15.40
2018-09-15T01:54:41.268Z,15.40
2018-09-15T01:57:12.227Z,15.40
2018-09-15T01:59:42.913Z,15.40
2018-09-15T02:02:13.580Z,15.40
2018-09-15T02:04:44.268Z,15.40
2018-09-15T02:07:14.940Z,15.30
2018-09-15T02:09:45.608Z,15.30
2018-09-15T02:12:16.281Z,15.30
2018-09-15T02:14:46.960Z,15.30
2018-09-15T02:17:17.591Z,15.30
2018-09-15T02:19:48.255Z,15.30
2018-09-15T02:22:19.273Z,15.20
2018-09-15T02:24:49.950Z,15.20
2018-09-15T02:27:20.584Z,15.10
2018-09-15T02:29:51.245Z,15.10
2018-09-15T02:32:21.913Z,15.00
2018-09-15T02:34:52.584Z,15.00
2018-09-15T02:37:23.222Z,14.90
2018-09-15T02:39:53.891Z,14.80
2018-09-15T02:42:24.528Z,14.80
2018-09-15T02:44:55.216Z,14.80
2018-09-15T02:47:25.859Z,14.70
2018-09-15T02:49:56.530Z,14.70
2018-09-15T02:52:27.163Z,14.60
2018-09-15T02:54:57.892Z,14.60
2018-09-15T02:57:28.555Z,14.50
2018-09-15T02:59:59.395Z,14.50
2018-09-15T03:02:30.051Z,14.40
2018-09-15T03:05:07.520Z,14.40
2018-09-15T03:07:38.188Z,14.30
2018-09-15T03:10:08.856Z,14.20
2018-09-15T03:12:39.556Z,14.20
2018-09-15T03:15:10.392Z,14.10
2018-09-15T03:17:41.055Z,14.10
2018-09-15T03:20:11.948Z,14.00
2018-09-15T03:22:42.661Z,14.00
2018-09-15T03:25:13.498Z,13.90
2018-09-15T03:27:44.198Z,13.90
2018-09-15T03:30:14.830Z,13.80
2018-09-15T03:32:45.512Z,13.80
2018-09-15T03:35:16.142Z,13.80
2018-09-15T03:37:46.816Z,13.70
2018-09-15T03:40:17.459Z,13.70
2018-09-15T03:42:48.155Z,13.60
2018-09-15T03:45:18.826Z,13.60
2018-09-15T03:47:49.497Z,13.60
2018-09-15T03:50:20.146Z,13.50
2018-09-15T03:52:50.840Z,13.50
2018-09-15T03:55:21.512Z,13.50
2018-09-15T03:57:52.352Z,13.40
2018-09-15T04:00:23.006Z,13.40
2018-09-15T04:02:53.688Z,13.40
2018-09-15T04:05:24.357Z,13.30
2018-09-15T04:07:55.049Z,13.30
2018-09-15T04:10:25.687Z,13.20
2018-09-15T04:12:56.395Z,13.20
2018-09-15T04:15:27.084Z,13.20
2018-09-15T04:17:57.719Z,13.10
2018-09-15T04:20:28.394Z,13.00
2018-09-15T04:22:59.036Z,13.00
2018-09-15T04:25:29.718Z,13.00
2018-09-15T04:28:00.356Z,13.00
2018-09-15T04:30:31.048Z,13.00
2018-09-15T04:33:01.695Z,13.00
2018-09-15T04:35:32.393Z,13.00
2018-09-15T04:38:03.257Z,13.00
2018-09-15T04:40:34.139Z,13.00
2018-09-15T04:43:04.798Z,13.00
2018-09-15T04:45:35.496Z,13.00
2018-09-15T04:48:06.144Z,13.00
2018-09-15T04:50:36.828Z,13.10
2018-09-15T04:53:07.687Z,13.10
2018-09-15T04:55:38.347Z,13.20
2018-09-15T04:58:09.031Z,13.20
2018-09-15T05:00:39.890Z,13.20
2018-09-15T05:03:12.402Z,13.20
2018-09-15T05:05:43.038Z,13.20
2018-09-15T05:08:13.702Z,13.20
2018-09-15T05:10:44.382Z,13.30
2018-09-15T05:13:15.026Z,13.30
2018-09-15T05:15:45.724Z,13.30
2018-09-15T05:18:16.400Z,13.30
2018-09-15T05:20:47.172Z,13.30
2018-09-15T05:23:17.837Z,13.30
2018-09-15T05:25:48.503Z,13.30
2018-09-15T05:28:19.164Z,13.30
2018-09-15T05:30:50.011Z,13.30
2018-09-15T05:33:20.682Z,13.30
2018-09-15T05:35:51.484Z,13.30
2018-09-15T05:38:22.155Z,13.30
2018-09-15T05:40:52.848Z,13.30
2018-09-15T05:43:23.496Z,13.30
2018-09-15T05:45:54.275Z,13.30
2018-09-15T05:48:24.955Z,13.30
2018-09-15T05:50:55.727Z,13.20
2018-09-15T05:53:26.463Z,13.20
2018-09-15T05:55:57.195Z,13.20
2018-09-15T05:58:28.074Z,13.20
2018-09-15T06:00:58.745Z,13.20
2018-09-15T06:03:29.435Z,13.10
2018-09-15T06:06:00.109Z,13.20
2018-09-15T06:08:30.772Z,13.10
2018-09-15T06:11:01.444Z,13.10
2018-09-15T06:13:32.191Z,13.10
2018-09-15T06:16:02.976Z,13.10
2018-09-15T06:18:33.987Z,13.20
2018-09-15T06:21:04.734Z,13.20
2018-09-15T06:23:35.404Z,13.20
2018-09-15T06:26:06.060Z,13.20
2018-09-15T06:28:36.771Z,13.20
2018-09-15T06:31:07.446Z,13.20
2018-09-15T06:33:38.117Z,13.30
2018-09-15T06:36:08.772Z,13.20
2018-09-15T06:38:39.443Z,13.30
2018-09-15T06:41:10.107Z,13.30
2018-09-15T06:43:40.806Z,13.30
2018-09-15T06:46:18.091Z,13.30
2018-09-15T06:48:48.774Z,13.40
2018-09-15T06:51:19.468Z,13.40
2018-09-15T06:53:50.382Z,13.50
2018-09-15T06:56:21.186Z,13.60
2018-09-15T06:58:58.993Z,13.60
2018-09-15T07:01:29.640Z,13.70
2018-09-15T07:04:00.329Z,13.80
2018-09-15T07:06:30.966Z,13.80
2018-09-15T07:09:01.656Z,13.90
2018-09-15T07:11:32.304Z,13.90
2018-09-15T07:14:04.046Z,14.00
2018-09-15T07:16:34.835Z,14.10
2018-09-15T07:19:06.152Z,14.10
2018-09-15T07:21:36.820Z,14.10
2018-09-15T07:24:07.868Z,14.20
2018-09-15T07:26:38.503Z,14.20
2018-09-15T07:29:09.190Z,14.30
2018-09-15T07:31:39.913Z,14.50
2018-09-15T07:34:10.723Z,14.60
2018-09-15T07:36:41.395Z,14.70
2018-09-15T07:39:12.770Z,14.80
2018-09-15T07:41:43.431Z,14.90
2018-09-15T07:44:14.090Z,15.00
2018-09-15T07:46:45.139Z,15.00
2018-09-15T07:49:15.959Z,15.10
2018-09-15T07:51:46.694Z,15.20
2018-09-15T07:54:17.484Z,15.20
2018-09-15T07:56:48.195Z,15.20
2018-09-15T07:59:19.048Z,15.20
2018-09-15T08:01:49.732Z,15.20
2018-09-15T08:04:20.599Z,15.20
2018-09-15T08:06:51.244Z,15.20
2018-09-15T08:09:21.916Z,15.20
2018-09-15T08:11:52.584Z,15.30
2018-09-15T08:14:23.270Z,15.40
2018-09-15T08:16:53.917Z,15.50
2018-09-15T08:19:24.619Z,15.60
2018-09-15T08:21:55.288Z,15.80
2018-09-15T08:24:25.990Z,15.90
2018-09-15T08:26:56.649Z,16.00
2018-09-15T08:29:27.326Z,16.00
2018-09-15T08:31:58.037Z,16.10
2018-09-15T08:34:28.857Z,16.20
2018-09-15T08:36:59.562Z,16.30
2018-09-15T08:39:30.756Z,16.40
2018-09-15T08:42:01.426Z,16.40
2018-09-15T08:44:32.083Z,16.50
2018-09-15T08:47:02.757Z,16.60
2018-09-15T08:49:33.399Z,16.60
2018-09-15T08:52:04.063Z,16.70
2018-09-15T08:54:34.746Z,16.70
2018-09-15T08:57:05.739Z,16.70
2018-09-15T08:59:36.399Z,17.00
2018-09-15T09:02:11.604Z,16.90
2018-09-15T09:04:43.460Z,17.00
2018-09-15T09:07:14.223Z,16.90
2018-09-15T09:09:44.887Z,17.00
2018-09-15T09:12:15.568Z,16.90
2018-09-15T09:14:46.411Z,16.90
2018-09-15T09:17:17.058Z,16.90
2018-09-15T09:19:48.115Z,17.00
2018-09-15T09:22:18.963Z,17.00
2018-09-15T09:24:49.619Z,17.00
2018-09-15T09:27:20.292Z,17.10
2018-09-15T09:29:50.936Z,17.10
2018-09-15T09:32:21.672Z,17.20
2018-09-15T09:34:52.478Z,17.30
2018-09-15T09:37:23.332Z,17.40
2018-09-15T09:39:53.971Z,17.40
2018-09-15T09:42:24.887Z,17.40
2018-09-15T09:44:55.564Z,17.40
2018-09-15T09:47:26.326Z,17.50
2018-09-15T09:49:57.142Z,17.50
2018-09-15T09:52:27.825Z,17.60
2018-09-15T09:54:58.458Z,17.60
2018-09-15T09:57:29.123Z,17.60
2018-09-15T09:59:59.759Z,17.70
2018-09-15T10:02:30.563Z,17.70
2018-09-15T10:05:01.824Z,17.80
2018-09-15T10:07:32.491Z,17.90
2018-09-15T10:10:03.520Z,18.00
2018-09-15T10:12:34.267Z,18.10
2018-09-15T10:15:05.284Z,18.30
2018-09-15T10:17:35.955Z,18.40
2018-09-15T10:20:06.968Z,18.40
2018-09-15T10:22:37.630Z,18.50
2018-09-15T10:25:08.346Z,18.50
2018-09-15T10:27:39.161Z,18.50
2018-09-15T10:30:09.850Z,18.70
2018-09-15T10:32:40.488Z,18.80
2018-09-15T10:35:11.148Z,18.80
2018-09-15T10:37:41.816Z,18.80
2018-09-15T10:40:12.514Z,18.90
2018-09-15T10:42:43.388Z,18.90
2018-09-15T10:45:14.601Z,19.00
2018-09-15T10:47:45.248Z,19.00
2018-09-15T10:50:16.073Z,19.00
2018-09-15T10:52:46.747Z,19.00
2018-09-15T10:55:17.392Z,19.00
2018-09-15T10:57:48.060Z,19.00
2018-09-15T11:00:18.745Z,19.00
2018-09-15T11:02:49.571Z,19.00
2018-09-15T11:05:20.211Z,18.90
2018-09-15T11:07:50.920Z,18.90
2018-09-15T11:10:21.563Z,19.00
2018-09-15T11:12:52.262Z,19.10
2018-09-15T11:15:22.940Z,19.20
2018-09-15T11:17:53.648Z,19.30
2018-09-15T11:20:24.315Z,19.30
2018-09-15T11:22:54.996Z,19.40
2018-09-15T11:25:25.856Z,19.40
2018-09-15T11:27:56.506Z,19.50
2018-09-15T11:30:27.163Z,19.50
2018-09-15T11:32:57.817Z,19.60
2018-09-15T11:35:28.240Z,19.70
2018-09-15T11:37:59.011Z,19.80
2018-09-15T11:40:29.686Z,20.00
2018-09-15T11:43:00.049Z,20.10
2018-09-15T11:45:30.440Z,20.20
2018-09-15T11:48:00.866Z,20.20
2018-09-15T11:50:31.355Z,20.20
2018-09-15T11:53:01.864Z,20.10
2018-09-15T11:55:32.231Z,20.10
2018-09-15T11:58:02.910Z,20.00
2018-09-15T12:00:35.675Z,19.90
2018-09-15T12:03:06.064Z,19.90
2018-09-15T12:05:36.441Z,19.90
2018-09-15T12:08:06.836Z,19.90
2018-09-15T12:10:37.198Z,19.90
2018-09-15T12:13:07.965Z,20.00
2018-09-15T12:15:38.312Z,20.00
2018-09-15T12:18:08.999Z,20.00
2018-09-15T12:20:39.391Z,20.00
2018-09-15T12:23:09.749Z,20.00
2018-09-15T12:25:40.513Z,20.00
2018-09-15T12:28:11.233Z,20.00
2018-09-15T12:30:41.607Z,19.90
2018-09-15T12:33:11.964Z,19.90
2018-09-15T12:35:42.410Z,19.90
2018-09-15T12:38:12.759Z,19.90
2018-09-15T12:40:43.152Z,19.90
2018-09-15T12:43:13.512Z,20.00
2018-09-15T12:45:43.899Z,20.20
2018-09-15T12:48:14.271Z,20.30
2018-09-15T12:50:44.791Z,20.40
2018-09-15T12:53:15.173Z,20.40
2018-09-15T12:55:45.617Z,20.50
2018-09-15T12:58:16.047Z,20.60
2018-09-15T13:00:46.434Z,20.70
2018-09-15T13:03:16.835Z,20.80
2018-09-15T13:05:47.189Z,20.80
2018-09-15T13:08:17.566Z,20.80
2018-09-15T13:10:47.919Z,20.80
2018-09-15T13:13:18.304Z,20.70
2018-09-15T13:15:48.820Z,20.60
2018-09-15T13:18:19.232Z,20.50
2018-09-15T13:20:49.644Z,20.50
2018-09-15T13:23:20.063Z,20.40
2018-09-15T13:25:50.436Z,20.40
2018-09-15T13:28:20.928Z,20.30
2018-09-15T13:30:51.280Z,20.40
2018-09-15T13:33:21.796Z,20.50
2018-09-15T13:35:52.153Z,20.60
2018-09-15T13:38:22.655Z,20.70
2018-09-15T13:40:53.020Z,20.70
2018-09-15T13:43:23.412Z,20.70
2018-09-15T13:45:53.795Z,20.60
2018-09-15T13:48:24.144Z,20.70
2018-09-15T13:50:54.532Z,20.60
2018-09-15T13:53:25.018Z,20.60
2018-09-15T13:55:55.552Z,20.60
2018-09-15T13:58:26.287Z,20.50
2018-09-15T14:00:56.837Z,20.50
2018-09-15T14:03:27.182Z,20.50
2018-09-15T14:05:57.583Z,20.50
2018-09-15T14:08:27.969Z,20.50
2018-09-15T14:10:58.395Z,20.40
2018-09-15T14:13:28.891Z,20.40
2018-09-15T14:15:59.271Z,20.40
2018-09-15T14:18:29.650Z,20.40
2018-09-15T14:21:00.067Z,20.30
2018-09-15T14:23:30.454Z,20.30
2018-09-15T14:26:00.796Z,20.30
2018-09-15T14:28:31.232Z,20.30
2018-09-15T14:31:01.815Z,20.20
2018-09-15T14:33:32.192Z,20.20
2018-09-15T14:36:02.546Z,20.20
2018-09-15T14:38:32.939Z,20.20
2018-09-15T14:41:03.488Z,20.20
2018-09-15T14:43:33.867Z,20.10
2018-09-15T14:46:04.235Z,20.10
2018-09-15T14:48:34.616Z,20.10
2018-09-15T14:51:05.001Z,20.10
2018-09-15T14:53:35.366Z,20.10
2018-09-15T14:56:06.106Z,20.10
2018-09-15T14:58:36.750Z,20.10
2018-09-15T15:01:07.489Z,20.10
2018-09-15T15:03:38.217Z,20.10
2018-09-15T15:06:08.621Z,20.10
2018-09-15T15:08:39.151Z,20.00
2018-09-15T15:11:09.530Z,20.00
2018-09-15T15:13:40.048Z,20.00
2018-09-15T15:16:10.524Z,20.00
2018-09-15T15:18:40.875Z,19.90
2018-09-15T15:21:11.261Z,19.90
2018-09-15T15:23:41.621Z,19.90
2018-09-15T15:26:12.045Z,19.90
2018-09-15T15:28:42.563Z,19.90
2018-09-15T15:31:12.930Z,19.80
2018-09-15T15:33:43.297Z,19.80
2018-09-15T15:36:13.677Z,19.80
2018-09-15T15:38:44.424Z,19.80
2018-09-15T15:41:14.817Z,19.70
2018-09-15T15:43:45.427Z,19.70
2018-09-15T15:46:16.009Z,19.70
2018-09-15T15:48:46.388Z,19.70
2018-09-15T15:51:16.947Z,19.60
2018-09-15T15:53:47.303Z,19.60
2018-09-15T15:56:17.684Z,19.60
2018-09-15T15:58:48.288Z,19.60
2018-09-15T16:01:18.835Z,19.60
2018-09-15T16:03:49.260Z,19.50
2018-09-15T16:06:19.656Z,19.50
2018-09-15T16:08:50.983Z,19.50
2018-09-15T16:11:21.892Z,19.50
2018-09-15T16:13:52.327Z,19.50
2018-09-15T16:16:22.678Z,19.50
2018-09-15T16:18:53.254Z,19.50
2018-09-15T16:21:23.640Z,19.50
2018-09-15T16:23:54.055Z,19.40
2018-09-15T16:26:24.398Z,19.40
2018-09-15T16:28:54.783Z,19.40
2018-09-15T16:31:25.132Z,19.40
2018-09-15T16:33:56.515Z,19.40
2018-09-15T16:36:26.911Z,19.40
2018-09-15T16:38:57.251Z,19.40
2018-09-15T16:41:27.644Z,19.30
2018-09-15T16:43:57.995Z,19.30
2018-09-15T16:46:28.398Z,19.30
2018-09-15T16:48:58.932Z,19.20
2018-09-15T16:51:29.312Z,19.20
2018-09-15T16:53:59.699Z,19.20
2018-09-15T16:56:30.100Z,19.10
2018-09-15T16:59:00.523Z,19.10
2018-09-15T17:01:30.899Z,19.00
2018-09-15T17:04:01.612Z,19.00
2018-09-15T17:06:32.008Z,18.90
2018-09-15T17:09:02.735Z,18.80
2018-09-15T17:11:33.413Z,18.80
2018-09-15T17:14:04.157Z,18.70
2018-09-15T17:16:34.599Z,18.60
2018-09-15T17:19:05.333Z,18.60
2018-09-15T17:21:35.723Z,18.50
2018-09-15T17:24:06.687Z,18.40
2018-09-15T17:26:37.093Z,18.40
2018-09-15T17:29:07.456Z,18.30
2018-09-15T17:31:37.848Z,18.20
2018-09-15T17:34:08.232Z,18.10
2018-09-15T17:36:38.621Z,18.00
2018-09-15T17:39:10.531Z,17.90
2018-09-15T17:41:41.232Z,17.90
2018-09-15T17:44:11.585Z,17.80
2018-09-15T17:46:42.256Z,17.70
2018-09-15T17:49:12.891Z,17.60
2018-09-15T17:51:43.575Z,17.50
2018-09-15T17:54:14.224Z,17.40
2018-09-15T17:56:44.895Z,17.30
2018-09-15T17:59:15.897Z,17.30
2018-09-15T18:01:46.930Z,17.20
2018-09-15T18:04:17.596Z,17.10
2018-09-15T18:06:48.256Z,17.00
2018-09-15T18:09:18.981Z,17.00
2018-09-15T18:11:49.656Z,16.90
2018-09-15T18:14:20.329Z,16.90
2018-09-15T18:16:50.993Z,16.80
2018-09-15T18:19:21.628Z,16.80
2018-09-15T18:21:52.503Z,16.70
2018-09-15T18:24:23.313Z,16.60
2018-09-15T18:26:53.980Z,16.60
2018-09-15T18:29:24.660Z,16.60
2018-09-15T18:31:55.328Z,16.50
2018-09-15T18:34:25.987Z,16.40
2018-09-15T18:36:56.785Z,16.40
2018-09-15T18:39:27.488Z,16.30
2018-09-15T18:41:58.167Z,16.20
2018-09-15T18:44:28.819Z,16.20
2018-09-15T18:46:59.836Z,16.10
2018-09-15T18:49:30.503Z,16.10
2018-09-15T18:52:01.172Z,16.00
2018-09-15T18:54:31.872Z,15.90
2018-09-15T18:57:02.568Z,15.90
2018-09-15T18:59:33.480Z,15.90
2018-09-15T19:02:04.170Z,15.80
2018-09-15T19:04:34.816Z,15.80
2018-09-15T19:07:05.620Z,15.70
2018-09-15T19:09:36.276Z,15.70
2018-09-15T19:12:07.292Z,15.60
2018-09-15T19:14:38.064Z,15.60
2018-09-15T19:17:08.888Z,15.60
2018-09-15T19:19:39.751Z,15.60
2018-09-15T19:22:10.416Z,15.50
2018-09-15T19:24:41.055Z,15.50
2018-09-15T19:27:11.748Z,15.40
2018-09-15T19:29:42.382Z,15.40
2018-09-15T19:32:13.051Z,15.30
2018-09-15T19:34:43.692Z,15.30
2018-09-15T19:37:14.577Z,15.30
2018-09-15T19:39:45.224Z,15.30
2018-09-15T19:42:15.906Z,15.30
2018-09-15T19:44:46.584Z,15.30
2018-09-15T19:47:17.267Z,15.30
2018-09-15T19:49:47.952Z,15.30
2018-09-15T19:52:18.739Z,15.20
2018-09-15T19:54:49.411Z,15.20
2018-09-15T19:57:20.224Z,15.10
2018-09-15T19:59:50.939Z,15.10
2018-09-15T20:02:21.570Z,15.00
2018-09-15T20:04:52.244Z,15.00
2018-09-15T20:07:23.112Z,15.00
2018-09-15T20:09:53.779Z,15.00
2018-09-15T20:12:24.460Z,15.00
2018-09-15T20:14:55.266Z,14.90
2018-09-15T20:17:25.287Z,14.90
2018-09-15T20:19:55.015Z,14.90
2018-09-15T20:22:25.691Z,14.90
2018-09-15T20:24:56.406Z,14.90
2018-09-15T20:27:27.997Z,14.90
2018-09-15T20:29:58.681Z,14.80
2018-09-15T20:32:29.373Z,14.80
2018-09-15T20:35:00.233Z,14.80
2018-09-15T20:37:30.964Z,14.80
2018-09-15T20:40:01.664Z,14.70
2018-09-15T20:42:32.481Z,14.70
2018-09-15T20:45:03.136Z,14.70
2018-09-15T20:47:33.815Z,14.70
2018-09-15T20:50:06.799Z,14.70
2018-09-15T20:52:38.348Z,14.60
2018-09-15T20:55:09.647Z,14.60
2018-09-15T20:57:40.675Z,14.60
2018-09-15T21:00:13.325Z,14.60
2018-09-15T21:02:45.247Z,14.60
2018-09-15T21:05:17.469Z,14.60
2018-09-15T21:07:49.580Z,14.50
2018-09-15T21:10:21.395Z,14.50
2018-09-15T21:12:53.093Z,14.50
2018-09-15T21:15:24.640Z,14.40
2018-09-15T21:17:56.334Z,14.40
2018-09-15T21:20:28.067Z,14.30
2018-09-15T21:23:00.208Z,14.30
2018-09-15T21:25:31.978Z,14.20
2018-09-15T21:28:03.919Z,14.20
2018-09-15T21:30:35.787Z,14.10
2018-09-15T21:33:07.425Z,14.10
2018-09-15T21:35:38.077Z,14.00
2018-09-15T21:38:08.718Z,13.90
2018-09-15T21:40:39.386Z,13.90
2018-09-15T21:43:10.019Z,13.80
2018-09-15T21:45:40.683Z,13.80
2018-09-15T21:48:11.318Z,13.80
2018-09-15T21:50:41.979Z,13.70
2018-09-15T21:53:12.615Z,13.70
2018-09-15T21:55:43.284Z,13.60
2018-09-15T21:58:13.929Z,13.60
2018-09-15T22:00:44.673Z,13.50
2018-09-15T22:03:18.859Z,13.50
2018-09-15T22:05:49.548Z,13.50
2018-09-15T22:08:20.617Z,13.50
2018-09-15T22:10:51.279Z,13.50
2018-09-15T22:13:23.031Z,13.50
2018-09-15T22:15:53.774Z,13.50
2018-09-15T22:18:24.567Z,13.40
2018-09-15T22:20:55.208Z,13.40
2018-09-15T22:23:25.878Z,13.40
2018-09-15T22:25:56.552Z,13.40
2018-09-15T22:28:27.220Z,13.40
2018-09-15T22:30:57.880Z,13.30
2018-09-15T22:33:28.553Z,13.30
2018-09-15T22:35:59.186Z,13.20
2018-09-15T22:38:29.855Z,13.20
2018-09-15T22:41:00.511Z,13.10
2018-09-15T22:43:31.372Z,13.10
2018-09-15T22:46:02.008Z,13.00
2018-09-15T22:48:32.683Z,13.00
2018-09-15T22:51:03.436Z,12.90
2018-09-15T22:53:34.079Z,12.90
2018-09-15T22:56:04.778Z,12.90
2018-09-15T22:58:35.480Z,12.80
2018-09-15T23:01:06.175Z,12.80
2018-09-15T23:03:36.826Z,12.80
2018-09-15T23:06:07.496Z,12.70
2018-09-15T23:08:38.132Z,12.70
2018-09-15T23:11:08.967Z,12.70
2018-09-15T23:13:39.659Z,12.70
2018-09-15T23:16:10.549Z,12.60
2018-09-15T23:18:41.191Z,12.60
2018-09-15T23:21:11.883Z,12.50
2018-09-15T23:23:42.515Z,12.50
2018-09-15T23:26:13.224Z,12.50
2018-09-15T23:28:43.868Z,12.50
2018-09-15T23:31:14.526Z,12.50
2018-09-15T23:33:45.163Z,12.50
2018-09-15T23:36:15.836Z,12.50
2018-09-15T23:38:46.471Z,12.40
2018-09-15T23:41:17.131Z,12.40
2018-09-15T23:43:47.767Z,12.50
2018-09-15T23:46:18.430Z,12.40
2018-09-15T23:48:49.071Z,12.40
2018-09-15T23:51:19.735Z,12.40
2018-09-15T23:53:50.363Z,12.40
2018-09-15T23:56:21.027Z,12.30
2018-09-15T23:58:51.699Z,12.30
